Flight Track Log - Related Links

Times and Time Zones

All times are in EDT time to prevent confusion due to time zone crossing. See the SWA22 flight status page for this flight to view local times or setup timezone preferences in your user account.

Time Position Orientation Groundspeed Altitude Reporting Facility
EDT Latitude Longitude Course Direction KTS MPH feet Rate Location/Type
Sun 11:01:37 AM 26.2397 -97.6586 349° North 139 160 600  Level Houston Center
Sun 11:01:55 AM 26.2525 -97.6614 349° North 151 174 1,000 3,266 Climbing Houston Center
Sun 11:02:56 AM 26.3156 -97.6789 346° North 229 264 4,900 3,353 Climbing Houston Center
Sun 11:04:11 AM 26.3908 -97.6697 North 261 300 8,600 2,803 Climbing Houston Center
Sun 11:05:13 AM 26.4681 -97.6294 25° Northeast 296 341 11,300 3,366 Climbing Houston Center
Sun 11:06:14 AM 26.5600 -97.5742 28° Northeast 347 399 15,500 3,366 Climbing Houston Center
Sun 11:07:16 AM 26.6458 -97.5192 30° Northeast 355 409 18,200 2,585 Climbing Houston Center
Sun 11:08:17 AM 26.7406 -97.4642 27° Northeast 380 437 20,800 2,410 Climbing Houston Center
Sun 11:09:18 AM 26.8422 -97.4117 25° Northeast 402 463 23,100 2,244 Climbing Houston Center
Sun 11:10:20 AM 26.9347 -97.3622 25° Northeast 412 474 25,400 2,732 Climbing Houston Center
Sun 11:11:21 AM 27.0553 -97.2869 29° Northeast 414 476 28,700 2,244 Climbing Houston Center
Sun 11:12:23 AM 27.1492 -97.2075 37° Northeast 420 483 30,000 1,268 Climbing Houston Center
Sun 11:13:24 AM 27.2517 -97.1244 36° Northeast 441 507 31,300 1,366 Climbing Houston Center
Sun 11:14:26 AM 27.3556 -97.0414 35° Northeast 455 524 32,800 927 Climbing Houston Center
Sun 11:15:27 AM 27.4683 -96.9778 27° Northeast 479 551 33,200 1,073 Climbing Houston Center
Sun 11:16:29 AM 27.6222 -96.9019 24° Northeast 500 575 35,000 871 Climbing Houston Center
Sun 11:17:31 AM 27.7497 -96.8361 25° Northeast 505 581 35,000  Level Houston Center
Sun 11:18:32 AM 27.8767 -96.7714 24° Northeast 502 578 35,000  Level Houston Center
Sun 11:19:34 AM 28.0019 -96.7072 24° Northeast 498 573 35,000  Level Houston Center
Sun 11:20:35 AM 28.1278 -96.6439 24° Northeast 496 571 35,000  Level Houston Center
Sun 11:21:37 AM 28.2528 -96.5797 24° Northeast 495 570 35,000  Level Houston Center
Sun 11:22:39 AM 28.3792 -96.5164 24° Northeast 496 571 35,000 -1,756 Level Houston Center
Sun 11:23:40 AM 28.5303 -96.4394 24° Northeast 496 571 31,400 -3,171 Descending Houston Center
Sun 11:24:42 AM 28.6547 -96.3744 25° Northeast 495 570 28,500 -3,000 Descending Houston Center
Sun 11:25:44 AM 28.7744 -96.3117 25° Northeast 480 552 25,200 -3,268 Descending Houston Center
Sun 11:26:45 AM 28.8931 -96.2503 24° Northeast 473 544 21,800 -3,171 Descending Houston Center
Sun 11:27:47 AM 29.0064 -96.1919 24° Northeast 452 520 18,700 -2,683 Descending Houston Center
Sun 11:28:48 AM 29.1108 -96.1356 25° Northeast 421 484 16,300 -3,171 Descending Houston Center
Sun 11:29:50 AM 29.2289 -96.0756 24° Northeast 392 451 12,200 -3,342 Descending Houston Center
Sun 11:30:07 AM 29.2547 -96.0556 34° Northeast 383 441 11,900 -387 Descending Houston Center
Sun 11:30:52 AM 29.2908 -95.9889 58° Northeast 368 423 11,800 -590 Descending Houston Center
Sun 11:31:08 AM 29.3025 -95.9544 69° East 365 420 11,300 -1,161 Descending Houston Center
Sun 11:31:54 AM 29.3250 -95.8833 70° East 358 412 10,600 -1,082 Descending Houston Center
Sun 11:32:09 AM 29.3392 -95.8447 67° East 354 407 10,200 -686 Descending Houston Center
Sun 11:33:04 AM 29.3711 -95.7550 68° East 329 379 9,800 -944 Descending Houston Center
Sun 11:33:57 AM 29.4006 -95.6928 61° Northeast 301 346 8,500 -1,670 Descending Houston Center
Sun 11:34:59 AM 29.4392 -95.6142 61° Northeast 287 330 6,600 -2,049 Descending Houston Center
Sun 11:36:00 AM 29.4853 -95.5219 60° Northeast 279 321 4,300 -2,000 Descending Houston Center
Sun 11:37:02 AM 29.5261 -95.4506 57° Northeast 272 313 2,500 -1,306 Descending Houston Center
Sun 11:38:04 AM 29.5631 -95.3850 57° Northeast 260 299 1,600 -581 Descending Houston Center
Sun 11:39:06 AM 29.5931 -95.3358 55° Northeast 215 247 1,300 -489 Descending Houston Center
Sun 11:40:19 AM 29.6239 -95.3000 45° Northeast 121 139 500 -585 Descending Houston Center
Sun 11:41:09 AM 29.6453 -95.2794 40° Northeast 137 158 100 -480 Descending Houston Center

Login

Don't have an account? Register now (free) for customized features, flight alerts, and more!